createdAt,value
2023-01-26T00:01:14.568Z,83.55
2023-01-26T00:03:40.996Z,77.25
2023-01-26T00:06:09.233Z,86.60
2023-01-26T00:08:37.610Z,75.07
2023-01-26T00:11:09.090Z,77.60
2023-01-26T00:13:35.902Z,78.45
2023-01-26T00:16:03.143Z,83.57
2023-01-26T00:18:30.608Z,72.85
2023-01-26T00:21:01.302Z,74.20
2023-01-26T00:23:29.518Z,75.43
2023-01-26T00:25:56.152Z,67.97
2023-01-26T00:28:22.536Z,68.68
2023-01-26T00:30:49.244Z,54.00
2023-01-26T00:33:15.748Z,55.05
2023-01-26T00:35:45.512Z,62.67
2023-01-26T00:38:12.440Z,73.47
2023-01-26T00:40:39.492Z,80.88
2023-01-26T00:43:06.485Z,61.70
2023-01-26T00:45:34.858Z,77.93
2023-01-26T00:48:01.450Z,74.22
2023-01-26T00:50:27.853Z,61.60
2023-01-26T00:52:54.193Z,67.13
2023-01-26T00:55:20.739Z,71.93
2023-01-26T00:57:47.037Z,71.45
2023-01-26T01:00:16.612Z,74.90
2023-01-26T01:02:43.516Z,72.43
2023-01-26T01:05:10.181Z,60.13
2023-01-26T01:07:36.645Z,63.42
2023-01-26T01:10:03.232Z,63.88
2023-01-26T01:12:29.519Z,76.55
2023-01-26T01:14:55.860Z,75.78
2023-01-26T01:17:22.190Z,72.75
2023-01-26T01:19:48.476Z,58.10
2023-01-26T01:22:14.800Z,64.65
2023-01-26T01:24:41.156Z,66.18
2023-01-26T01:27:07.446Z,70.07
2023-01-26T01:29:33.809Z,68.43
2023-01-26T01:32:00.189Z,61.53
2023-01-26T01:34:26.529Z,52.20
2023-01-26T01:36:52.852Z,58.42
2023-01-26T01:39:19.149Z,59.83
2023-01-26T01:41:45.462Z,64.43
2023-01-26T01:44:23.722Z,61.15
2023-01-26T01:47:13.459Z,44.78
2023-01-26T01:49:47.649Z,54.03
2023-01-26T01:52:18.104Z,47.72
2023-01-26T01:54:48.844Z,54.33
2023-01-26T01:57:27.574Z,55.92
2023-01-26T02:00:01.661Z,54.53
2023-01-26T02:02:28.614Z,49.40
2023-01-26T02:04:58.878Z,52.97
2023-01-26T02:07:25.753Z,52.03
2023-01-26T02:10:11.043Z,53.85
2023-01-26T02:12:37.587Z,47.20
2023-01-26T02:15:04.288Z,55.63
2023-01-26T02:17:30.694Z,56.55
2023-01-26T02:20:30.906Z,47.63
2023-01-26T02:23:21.295Z,54.83
2023-01-26T02:25:52.637Z,60.90
2023-01-26T02:28:21.804Z,48.95
2023-01-26T02:30:48.816Z,54.22
2023-01-26T02:33:22.422Z,52.17
2023-01-26T02:35:49.042Z,56.50
2023-01-26T02:38:16.559Z,48.95
2023-01-26T02:40:55.182Z,57.58
2023-01-26T02:43:25.379Z,59.13
2023-01-26T02:45:52.251Z,60.50
2023-01-26T02:48:37.382Z,52.92
2023-01-26T02:51:04.102Z,40.22
2023-01-26T02:53:30.495Z,52.58
2023-01-26T02:55:57.324Z,55.38
2023-01-26T02:58:23.673Z,49.70
2023-01-26T03:00:50.020Z,49.17
2023-01-26T03:03:23.221Z,56.78
2023-01-26T03:05:49.627Z,54.00
2023-01-26T03:08:16.022Z,47.20
2023-01-26T03:10:42.398Z,53.60
2023-01-26T03:13:09.216Z,52.53
2023-01-26T03:15:42.814Z,44.90
2023-01-26T03:18:34.783Z,52.58
2023-01-26T03:21:33.766Z,54.22
2023-01-26T03:24:19.465Z,38.88
2023-01-26T03:27:04.802Z,42.97
2023-01-26T03:29:31.779Z,46.72
2023-01-26T03:31:59.259Z,60.42
2023-01-26T03:34:26.922Z,54.50
2023-01-26T03:36:53.535Z,53.80
2023-01-26T03:39:40.120Z,48.38
2023-01-26T03:42:25.628Z,43.95
2023-01-26T03:45:10.581Z,48.00
2023-01-26T03:47:56.298Z,44.20
2023-01-26T03:50:41.497Z,48.90
2023-01-26T03:53:37.884Z,35.22
2023-01-26T03:56:18.111Z,40.65
2023-01-26T03:58:53.833Z,38.60
2023-01-26T04:01:26.339Z,42.67
2023-01-26T04:04:12.576Z,52.33
2023-01-26T04:06:59.784Z,39.78
2023-01-26T04:09:26.316Z,44.05
2023-01-26T04:11:53.093Z,41.70
2023-01-26T04:14:49.530Z,41.42
2023-01-26T04:17:35.551Z,34.75
2023-01-26T04:20:20.209Z,44.15
2023-01-26T04:22:46.505Z,45.50
2023-01-26T04:25:15.825Z,41.80
2023-01-26T04:27:42.968Z,45.63
2023-01-26T04:30:12.002Z,40.58
2023-01-26T04:32:39.048Z,35.00
2023-01-26T04:35:06.756Z,34.40
2023-01-26T04:37:33.287Z,34.58
2023-01-26T04:39:59.671Z,37.05
2023-01-26T04:42:26.168Z,42.83
2023-01-26T04:44:53.510Z,37.83
2023-01-26T04:47:21.065Z,30.70
2023-01-26T04:49:47.726Z,40.50
2023-01-26T04:52:14.559Z,39.58
2023-01-26T04:54:41.260Z,30.85
2023-01-26T04:57:08.338Z,34.38
2023-01-26T04:59:34.854Z,39.17
2023-01-26T05:02:01.262Z,33.53
2023-01-26T05:04:27.604Z,35.10
2023-01-26T05:06:53.933Z,32.60
2023-01-26T05:09:20.213Z,28.00
2023-01-26T05:11:46.519Z,38.25
2023-01-26T05:14:12.860Z,36.42
2023-01-26T05:16:39.202Z,35.47
2023-01-26T05:19:05.544Z,38.60
2023-01-26T05:21:31.884Z,33.42
2023-01-26T05:23:58.258Z,31.60
2023-01-26T05:26:24.585Z,35.92
2023-01-26T05:28:50.932Z,31.13
2023-01-26T05:31:17.232Z,31.45
2023-01-26T05:33:43.616Z,31.05
2023-01-26T05:36:10.110Z,30.85
2023-01-26T05:38:36.496Z,32.60
2023-01-26T05:41:02.826Z,33.70
2023-01-26T05:43:29.142Z,26.17
2023-01-26T05:45:55.675Z,34.40
2023-01-26T05:48:22.021Z,32.97
2023-01-26T05:50:48.330Z,29.67
2023-01-26T05:53:15.034Z,29.95
2023-01-26T05:55:41.327Z,30.17
2023-01-26T05:58:07.715Z,28.35
2023-01-26T06:00:34.069Z,34.00
2023-01-26T06:03:00.377Z,24.73
2023-01-26T06:05:26.715Z,29.10
2023-01-26T06:07:53.050Z,27.15
2023-01-26T06:10:19.394Z,26.77
2023-01-26T06:12:45.730Z,25.88
2023-01-26T06:15:12.635Z,23.70
2023-01-26T06:17:39.694Z,29.33
2023-01-26T06:20:07.851Z,27.40
2023-01-26T06:22:34.172Z,29.00
2023-01-26T06:25:00.657Z,29.08
2023-01-26T06:27:27.116Z,25.92
2023-01-26T06:29:53.428Z,26.25
2023-01-26T06:32:19.965Z,25.40
2023-01-26T06:34:46.294Z,29.80
2023-01-26T06:37:13.860Z,23.77
2023-01-26T06:39:41.516Z,28.33
2023-01-26T06:42:08.960Z,25.23
2023-01-26T06:44:35.874Z,27.58
2023-01-26T06:47:02.322Z,25.70
2023-01-26T06:49:28.706Z,24.00
2023-01-26T06:52:23.887Z,26.08
2023-01-26T06:54:51.277Z,25.10
2023-01-26T06:57:17.677Z,29.65
2023-01-26T06:59:43.999Z,20.50
2023-01-26T07:02:19.392Z,26.25
2023-01-26T07:04:46.599Z,27.33
2023-01-26T07:07:13.002Z,26.65
2023-01-26T07:09:39.728Z,24.80
2023-01-26T07:12:06.354Z,27.85
2023-01-26T07:14:33.176Z,30.27
2023-01-26T07:16:59.509Z,26.02
2023-01-26T07:19:25.784Z,28.73
2023-01-26T07:21:52.828Z,30.60
2023-01-26T07:24:21.668Z,27.83
2023-01-26T07:26:48.016Z,27.38
2023-01-26T07:29:14.402Z,27.38
2023-01-26T07:31:41.576Z,28.52
2023-01-26T07:34:09.392Z,26.52
2023-01-26T07:36:35.762Z,33.47
2023-01-26T07:39:02.109Z,28.30
2023-01-26T07:41:28.432Z,30.98
2023-01-26T07:43:54.746Z,30.02
2023-01-26T07:46:21.130Z,28.70
2023-01-26T07:48:47.595Z,25.98
2023-01-26T07:51:13.883Z,25.13
2023-01-26T07:53:42.084Z,28.55
2023-01-26T07:56:10.830Z,26.80
2023-01-26T07:58:37.411Z,24.50
2023-01-26T08:01:14.111Z,30.33
2023-01-26T08:03:41.759Z,30.05
2023-01-26T08:06:11.797Z,24.58
2023-01-26T08:08:42.516Z,29.63
2023-01-26T08:11:10.392Z,24.60
2023-01-26T08:13:37.317Z,28.13
2023-01-26T08:16:12.590Z,28.00
2023-01-26T08:18:43.961Z,28.65
2023-01-26T08:21:11.601Z,33.45
2023-01-26T08:23:37.927Z,31.25
2023-01-26T08:26:07.200Z,31.45
2023-01-26T08:28:34.220Z,33.45
2023-01-26T08:31:11.148Z,29.30
2023-01-26T08:33:38.285Z,35.00
2023-01-26T08:36:06.658Z,30.77
2023-01-26T08:38:34.440Z,34.15
2023-01-26T08:41:01.981Z,32.05
2023-01-26T08:43:28.910Z,28.17
2023-01-26T08:45:55.326Z,31.88
2023-01-26T08:48:22.167Z,35.67
2023-01-26T08:50:48.590Z,36.00
2023-01-26T08:53:14.978Z,35.72
2023-01-26T08:55:41.294Z,38.38
2023-01-26T08:58:07.604Z,41.40
2023-01-26T09:00:34.074Z,36.95
2023-01-26T09:03:02.359Z,35.90
2023-01-26T09:05:32.589Z,45.83
2023-01-26T09:07:59.116Z,28.77
2023-01-26T09:10:25.849Z,38.03
2023-01-26T09:12:52.343Z,39.72
2023-01-26T09:15:18.803Z,39.83
2023-01-26T09:17:48.478Z,51.85
2023-01-26T09:20:14.885Z,45.97
2023-01-26T09:22:42.427Z,41.05
2023-01-26T09:25:09.420Z,41.75
2023-01-26T09:27:36.659Z,43.15
2023-01-26T09:30:05.426Z,42.13
2023-01-26T09:32:31.932Z,48.22
2023-01-26T09:34:58.328Z,43.80
2023-01-26T09:37:24.701Z,55.05
2023-01-26T09:39:51.050Z,38.78
2023-01-26T09:42:33.581Z,37.92
2023-01-26T09:45:17.276Z,54.60
2023-01-26T09:48:15.544Z,51.05
2023-01-26T09:50:48.453Z,45.70
2023-01-26T09:53:27.408Z,43.47
2023-01-26T09:55:55.418Z,40.60
2023-01-26T09:58:31.760Z,63.55
2023-01-26T10:01:02.363Z,57.45
2023-01-26T10:03:43.879Z,70.10
2023-01-26T10:06:16.054Z,58.47
2023-01-26T10:08:43.895Z,49.35
2023-01-26T10:11:21.937Z,72.15
2023-01-26T10:13:59.387Z,54.08
2023-01-26T10:16:26.083Z,63.13
2023-01-26T10:19:02.560Z,85.47
2023-01-26T10:21:40.406Z,119.75
2023-01-26T10:24:11.483Z,104.82
2023-01-26T10:26:37.868Z,63.97
2023-01-26T10:29:04.364Z,60.47
2023-01-26T10:31:33.478Z,79.00
2023-01-26T10:34:08.929Z,105.03
2023-01-26T10:36:35.300Z,75.22
2023-01-26T10:39:09.588Z,89.75
2023-01-26T10:41:36.574Z,71.65
2023-01-26T10:44:20.011Z,86.50
2023-01-26T10:46:46.348Z,90.78
2023-01-26T10:49:12.644Z,77.70
2023-01-26T10:51:45.112Z,79.70
2023-01-26T10:54:15.606Z,97.97
2023-01-26T10:57:17.037Z,107.43
2023-01-26T11:02:15.413Z,62.80
2023-01-26T11:04:42.032Z,138.77
2023-01-26T11:07:42.469Z,94.53
2023-01-26T11:10:28.952Z,87.28
2023-01-26T11:13:19.929Z,113.28
2023-01-26T11:16:07.123Z,118.10
2023-01-26T11:18:53.076Z,53.45
2023-01-26T11:21:28.314Z,75.40
2023-01-26T11:24:14.081Z,58.92
2023-01-26T11:26:52.633Z,74.38
2023-01-26T11:29:54.355Z,58.80
2023-01-26T11:32:51.708Z,69.65
2023-01-26T11:36:00.039Z,53.85
2023-01-26T11:38:31.071Z,57.47
2023-01-26T11:43:35.678Z,37.92
2023-01-26T11:46:33.088Z,29.30
2023-01-26T11:49:02.266Z,23.50
2023-01-26T11:52:05.847Z,24.27
2023-01-26T11:54:57.939Z,27.75
2023-01-26T11:57:52.728Z,30.77
2023-01-26T12:00:29.887Z,26.08
2023-01-26T12:03:03.857Z,35.50
2023-01-26T12:05:40.541Z,31.20
2023-01-26T12:08:38.125Z,18.83
2023-01-26T12:11:30.125Z,27.70
2023-01-26T12:14:16.802Z,19.30
2023-01-26T12:16:43.205Z,21.17
2023-01-26T12:19:31.470Z,27.48
2023-01-26T12:22:05.339Z,24.20
2023-01-26T12:25:08.193Z,25.98
2023-01-26T12:27:42.134Z,31.67
2023-01-26T12:30:36.598Z,20.25
2023-01-26T12:33:03.577Z,23.85
2023-01-26T12:35:32.664Z,24.67
2023-01-26T12:38:17.536Z,22.02
2023-01-26T12:41:01.884Z,25.90
2023-01-26T12:43:34.751Z,22.55
2023-01-26T12:46:05.096Z,22.35
2023-01-26T12:48:45.507Z,32.70
2023-01-26T12:51:29.180Z,27.47
2023-01-26T12:54:10.775Z,26.77
2023-01-26T12:56:52.324Z,23.45
2023-01-26T12:59:46.394Z,25.80
2023-01-26T13:02:30.076Z,26.80
2023-01-26T13:04:59.251Z,26.35
2023-01-26T13:07:36.351Z,37.85
2023-01-26T13:10:15.300Z,22.65
2023-01-26T13:12:50.089Z,25.98
2023-01-26T13:15:19.072Z,26.50
2023-01-26T13:17:49.742Z,16.55
2023-01-26T13:20:43.100Z,19.20
2023-01-26T13:23:28.182Z,19.05
2023-01-26T13:26:25.776Z,31.50
2023-01-26T13:28:53.376Z,25.25
2023-01-26T13:31:34.168Z,21.85
2023-01-26T13:34:07.338Z,19.40
2023-01-26T13:36:36.878Z,22.80
2023-01-26T13:39:18.185Z,15.93
2023-01-26T13:41:47.437Z,16.17
2023-01-26T13:44:38.254Z,10.68
2023-01-26T13:47:13.518Z,14.02
2023-01-26T13:49:42.239Z,8.90
2023-01-26T13:52:28.181Z,13.65
2023-01-26T13:54:57.627Z,12.25
2023-01-26T13:57:26.582Z,14.70
2023-01-26T13:59:59.028Z,12.13
2023-01-26T14:02:31.186Z,13.02
2023-01-26T14:04:58.125Z,14.98
2023-01-26T14:07:40.778Z,18.50
2023-01-26T14:10:08.968Z,18.63
2023-01-26T14:12:45.688Z,13.55
2023-01-26T14:15:28.669Z,33.88
2023-01-26T14:18:04.989Z,15.48
2023-01-26T14:20:40.737Z,11.98
2023-01-26T14:23:18.774Z,12.45
2023-01-26T14:26:06.810Z,14.27
2023-01-26T14:28:40.746Z,13.60
2023-01-26T14:31:20.021Z,16.85
2023-01-26T14:33:48.456Z,15.10
2023-01-26T14:36:20.489Z,12.82
2023-01-26T14:38:49.317Z,11.20
2023-01-26T14:41:28.314Z,13.35
2023-01-26T14:43:59.696Z,11.07
2023-01-26T14:46:44.334Z,14.00
2023-01-26T14:49:21.107Z,20.40
2023-01-26T14:51:55.043Z,10.70
2023-01-26T14:54:27.888Z,15.18
2023-01-26T14:56:54.302Z,14.02
2023-01-26T14:59:41.138Z,16.45
2023-01-26T15:02:16.214Z,13.63
2023-01-26T15:04:49.081Z,16.52
2023-01-26T15:07:40.687Z,10.73
2023-01-26T15:10:40.593Z,14.05
2023-01-26T15:13:09.845Z,16.35
2023-01-26T15:15:48.486Z,15.88
2023-01-26T15:18:14.759Z,7.03
2023-01-26T15:20:42.455Z,14.77
2023-01-26T15:23:42.777Z,10.90
2023-01-26T15:26:35.769Z,11.60
2023-01-26T15:29:05.341Z,8.57
2023-01-26T15:31:37.513Z,4.70
2023-01-26T15:34:05.760Z,17.33
2023-01-26T15:36:48.094Z,9.50
2023-01-26T15:39:19.768Z,8.55
2023-01-26T15:42:18.005Z,6.68
2023-01-26T15:44:44.357Z,6.13
2023-01-26T15:47:12.057Z,8.23
2023-01-26T15:49:38.910Z,10.10
2023-01-26T15:52:16.282Z,17.42
2023-01-26T15:54:43.059Z,6.38
2023-01-26T15:57:11.545Z,6.18
2023-01-26T15:59:38.861Z,9.98
2023-01-26T16:02:14.031Z,6.38
2023-01-26T16:04:40.561Z,10.25
2023-01-26T16:07:15.288Z,10.30
2023-01-26T16:09:42.024Z,7.97
2023-01-26T16:12:33.773Z,4.38
2023-01-26T16:15:00.667Z,11.95
2023-01-26T16:17:27.231Z,7.10
2023-01-26T16:19:53.798Z,6.05
2023-01-26T16:22:20.263Z,10.82
2023-01-26T16:24:46.959Z,6.78
2023-01-26T16:27:13.277Z,9.40
2023-01-26T16:29:39.667Z,7.07
2023-01-26T16:32:26.177Z,8.18
2023-01-26T16:34:52.535Z,9.15
2023-01-26T16:37:18.890Z,13.40
2023-01-26T16:39:45.192Z,13.88
2023-01-26T16:42:18.356Z,6.35
2023-01-26T16:44:45.217Z,10.40
2023-01-26T16:47:11.498Z,6.22
2023-01-26T16:49:37.917Z,9.75
2023-01-26T16:52:04.436Z,6.47
2023-01-26T16:54:30.727Z,13.30
2023-01-26T16:56:57.472Z,6.78
2023-01-26T16:59:23.848Z,8.48
2023-01-26T17:01:50.316Z,19.92
2023-01-26T17:04:16.638Z,7.38
2023-01-26T17:06:43.143Z,4.47
2023-01-26T17:09:10.312Z,7.05
2023-01-26T17:11:36.614Z,3.20
2023-01-26T17:14:03.592Z,7.15
2023-01-26T17:16:31.840Z,6.80
2023-01-26T17:18:58.500Z,6.07
2023-01-26T17:21:26.630Z,6.75
2023-01-26T17:23:56.495Z,3.72
2023-01-26T17:26:23.381Z,4.72
2023-01-26T17:28:53.642Z,5.00
2023-01-26T17:31:22.374Z,9.13
2023-01-26T17:33:49.995Z,4.32
2023-01-26T17:36:17.807Z,7.88
2023-01-26T17:38:44.475Z,4.20
2023-01-26T17:41:10.863Z,4.25
2023-01-26T17:43:37.165Z,8.38
2023-01-26T17:46:12.558Z,9.27
2023-01-26T17:48:39.834Z,10.68
2023-01-26T17:51:07.569Z,7.68
2023-01-26T17:53:37.234Z,7.70
2023-01-26T17:56:04.247Z,8.77
2023-01-26T17:58:30.602Z,7.18
2023-01-26T18:00:56.971Z,6.57
2023-01-26T18:03:26.134Z,5.80
2023-01-26T18:05:53.969Z,5.15
2023-01-26T18:08:21.099Z,12.50
2023-01-26T18:10:47.439Z,14.13
2023-01-26T18:13:14.435Z,8.63
2023-01-26T18:15:44.023Z,9.48
2023-01-26T18:18:10.351Z,17.33
2023-01-26T18:20:36.690Z,10.27
2023-01-26T18:23:03.027Z,18.50
2023-01-26T18:25:29.649Z,8.85
2023-01-26T18:27:55.956Z,12.30
2023-01-26T18:30:22.245Z,10.65
2023-01-26T18:32:48.924Z,11.48
2023-01-26T18:35:15.364Z,9.07
2023-01-26T18:37:41.689Z,13.05
2023-01-26T18:40:08.829Z,12.23
2023-01-26T18:42:35.192Z,10.70
2023-01-26T18:45:01.618Z,12.98
2023-01-26T18:47:28.454Z,11.93
2023-01-26T18:49:55.032Z,12.90
2023-01-26T18:52:21.902Z,8.93
2023-01-26T18:54:48.864Z,8.50
2023-01-26T18:57:15.301Z,9.88
2023-01-26T18:59:41.821Z,10.63
2023-01-26T19:02:08.242Z,8.25
2023-01-26T19:04:34.565Z,9.13
2023-01-26T19:07:01.022Z,8.60
2023-01-26T19:09:32.975Z,6.15
2023-01-26T19:11:59.313Z,10.50
2023-01-26T19:14:26.466Z,7.38
2023-01-26T19:16:53.065Z,12.95
2023-01-26T19:19:19.480Z,12.20
2023-01-26T19:21:45.897Z,15.60
2023-01-26T19:24:12.279Z,10.57
2023-01-26T19:26:38.828Z,10.20
2023-01-26T19:29:05.791Z,8.30
2023-01-26T19:31:34.335Z,16.08
2023-01-26T19:34:03.412Z,15.90
2023-01-26T19:36:32.292Z,12.18
2023-01-26T19:38:58.674Z,15.18
2023-01-26T19:41:25.524Z,12.75
2023-01-26T19:43:52.175Z,12.13
2023-01-26T19:46:19.069Z,19.73
2023-01-26T19:48:46.120Z,10.75
2023-01-26T19:51:21.237Z,7.82
2023-01-26T19:53:49.581Z,6.65
2023-01-26T19:56:24.609Z,9.13
2023-01-26T19:58:56.327Z,7.47
2023-01-26T20:01:23.887Z,7.07
2023-01-26T20:03:59.133Z,13.85
2023-01-26T20:06:28.142Z,10.73
2023-01-26T20:08:55.347Z,7.65
2023-01-26T20:11:24.953Z,11.70
2023-01-26T20:13:58.946Z,16.23
2023-01-26T20:16:28.941Z,7.70
2023-01-26T20:18:56.957Z,11.52
2023-01-26T20:21:24.153Z,11.32
2023-01-26T20:23:54.744Z,6.20
2023-01-26T20:26:23.079Z,14.07
2023-01-26T20:28:49.561Z,11.32
2023-01-26T20:31:19.372Z,12.50
2023-01-26T20:33:47.928Z,16.98
2023-01-26T20:36:17.324Z,12.07
2023-01-26T20:38:44.267Z,17.98
2023-01-26T20:41:16.823Z,13.80
2023-01-26T20:43:57.382Z,7.93
2023-01-26T20:46:27.701Z,16.98
2023-01-26T20:48:55.580Z,11.70
2023-01-26T20:51:26.776Z,19.42
2023-01-26T20:53:53.098Z,11.65
2023-01-26T20:56:21.610Z,7.82
2023-01-26T20:58:48.313Z,9.57
2023-01-26T21:01:16.772Z,6.82
2023-01-26T21:03:43.535Z,6.97
2023-01-26T21:06:13.095Z,9.57
2023-01-26T21:08:40.374Z,16.38
2023-01-26T21:11:11.315Z,10.55
2023-01-26T21:13:38.019Z,8.30
2023-01-26T21:16:04.739Z,10.35
2023-01-26T21:18:31.208Z,6.68
2023-01-26T21:20:59.451Z,10.20
2023-01-26T21:23:25.796Z,11.48
2023-01-26T21:26:21.920Z,10.85
2023-01-26T21:28:53.359Z,12.88
2023-01-26T21:31:21.655Z,7.47
2023-01-26T21:33:48.842Z,8.32
2023-01-26T21:36:18.942Z,11.00
2023-01-26T21:38:46.879Z,11.82
2023-01-26T21:41:37.984Z,8.98
2023-01-26T21:44:06.989Z,15.55
2023-01-26T21:46:34.929Z,10.80
2023-01-26T21:49:02.117Z,8.05
2023-01-26T21:51:47.560Z,12.10
2023-01-26T21:54:15.099Z,15.07
2023-01-26T21:56:41.626Z,11.95
2023-01-26T21:59:11.182Z,14.95
2023-01-26T22:01:40.029Z,8.48
2023-01-26T22:04:09.510Z,7.93
2023-01-26T22:06:37.281Z,9.60
2023-01-26T22:09:04.837Z,18.00
2023-01-26T22:11:31.540Z,10.55
2023-01-26T22:13:57.992Z,13.60
2023-01-26T22:16:24.763Z,16.00
2023-01-26T22:18:51.121Z,6.50
2023-01-26T22:21:18.603Z,16.13
2023-01-26T22:23:45.262Z,13.23
2023-01-26T22:26:21.153Z,10.23
2023-01-26T22:28:52.491Z,9.95
2023-01-26T22:31:20.148Z,8.30
2023-01-26T22:33:47.319Z,8.95
2023-01-26T22:36:14.149Z,8.15
2023-01-26T22:38:41.363Z,12.30
2023-01-26T22:41:07.693Z,10.73
2023-01-26T22:43:34.094Z,15.93
2023-01-26T22:46:09.623Z,6.00
2023-01-26T22:48:36.156Z,11.13
2023-01-26T22:51:15.329Z,12.90
2023-01-26T22:53:42.815Z,8.77
2023-01-26T22:56:12.373Z,11.38
2023-01-26T22:58:47.620Z,7.30
2023-01-26T23:01:22.307Z,7.70
2023-01-26T23:03:53.479Z,12.55
2023-01-26T23:06:20.234Z,12.00
2023-01-26T23:08:46.806Z,10.70
2023-01-26T23:11:18.757Z,13.27
2023-01-26T23:13:46.648Z,11.45
2023-01-26T23:16:13.866Z,12.32
2023-01-26T23:18:41.016Z,8.60
2023-01-26T23:21:08.335Z,11.68
2023-01-26T23:23:35.235Z,10.32
2023-01-26T23:26:02.091Z,12.60
2023-01-26T23:28:31.191Z,8.43
2023-01-26T23:30:58.637Z,10.35
2023-01-26T23:33:26.703Z,9.02
2023-01-26T23:35:53.242Z,11.30
2023-01-26T23:38:26.808Z,11.07
2023-01-26T23:40:53.953Z,9.10
2023-01-26T23:43:21.257Z,7.68
2023-01-26T23:45:49.616Z,10.48
2023-01-26T23:48:16.697Z,9.77
2023-01-26T23:50:43.057Z,14.80
2023-01-26T23:53:09.723Z,8.75
2023-01-26T23:55:39.147Z,9.80
2023-01-26T23:58:05.430Z,9.98
